sensor_id;sensor_type;location;lat;lon;timestamp;temperature;humidity
60234;DHT22;49514;43.538;-5.708;2023-07-31T00:01:44;22.20;99.90
60234;DHT22;49514;43.538;-5.708;2023-07-31T00:04:11;22.10;99.90
60234;DHT22;49514;43.538;-5.708;2023-07-31T00:06:38;22.10;99.90
60234;DHT22;49514;43.538;-5.708;2023-07-31T00:09:04;22.10;99.90
60234;DHT22;49514;43.538;-5.708;2023-07-31T00:11:31;22.10;99.90
60234;DHT22;49514;43.538;-5.708;2023-07-31T00:13:58;22.10;99.90
60234;DHT22;49514;43.538;-5.708;2023-07-31T00:16:24;22.00;99.90
60234;DHT22;49514;43.538;-5.708;2023-07-31T00:18:51;22.00;99.90
60234;DHT22;49514;43.538;-5.708;2023-07-31T00:21:18;22.00;99.90
60234;DHT22;49514;43.538;-5.708;2023-07-31T00:23:44;21.90;99.90
60234;DHT22;49514;43.538;-5.708;2023-07-31T00:26:11;21.90;99.90
60234;DHT22;49514;43.538;-5.708;2023-07-31T00:28:37;21.90;99.90
60234;DHT22;49514;43.538;-5.708;2023-07-31T00:31:04;21.90;99.90
60234;DHT22;49514;43.538;-5.708;2023-07-31T00:33:31;21.90;99.90
60234;DHT22;49514;43.538;-5.708;2023-07-31T00:35:58;21.80;99.90
60234;DHT22;49514;43.538;-5.708;2023-07-31T00:38:26;21.80;99.90
60234;DHT22;49514;43.538;-5.708;2023-07-31T00:40:52;21.80;99.90
60234;DHT22;49514;43.538;-5.708;2023-07-31T00:43:19;21.70;99.90
60234;DHT22;49514;43.538;-5.708;2023-07-31T00:45:46;21.70;99.90
60234;DHT22;49514;43.538;-5.708;2023-07-31T00:48:13;21.60;99.90
60234;DHT22;49514;43.538;-5.708;2023-07-31T00:50:40;21.50;99.90
60234;DHT22;49514;43.538;-5.708;2023-07-31T00:53:07;21.50;99.90
60234;DHT22;49514;43.538;-5.708;2023-07-31T00:55:34;21.50;99.90
60234;DHT22;49514;43.538;-5.708;2023-07-31T00:58:00;21.50;99.90
60234;DHT22;49514;43.538;-5.708;2023-07-31T01:00:27;21.50;99.90
60234;DHT22;49514;43.538;-5.708;2023-07-31T01:02:53;21.50;99.90
60234;DHT22;49514;43.538;-5.708;2023-07-31T01:05:29;21.40;99.90
60234;DHT22;49514;43.538;-5.708;2023-07-31T01:08:22;21.40;99.90
60234;DHT22;49514;43.538;-5.708;2023-07-31T01:11:15;21.40;99.90
60234;DHT22;49514;43.538;-5.708;2023-07-31T01:13:44;21.40;99.90
60234;DHT22;49514;43.538;-5.708;2023-07-31T01:16:12;21.40;99.90
60234;DHT22;49514;43.538;-5.708;2023-07-31T01:18:38;21.30;99.90
60234;DHT22;49514;43.538;-5.708;2023-07-31T01:26:34;21.30;99.90
60234;DHT22;49514;43.538;-5.708;2023-07-31T01:32:03;21.20;99.90
60234;DHT22;49514;43.538;-5.708;2023-07-31T01:34:31;21.20;99.90
60234;DHT22;49514;43.538;-5.708;2023-07-31T01:36:58;21.20;99.90
60234;DHT22;49514;43.538;-5.708;2023-07-31T01:39:25;21.10;99.90
60234;DHT22;49514;43.538;-5.708;2023-07-31T01:41:52;21.10;99.90
60234;DHT22;49514;43.538;-5.708;2023-07-31T01:44:19;21.10;99.90
60234;DHT22;49514;43.538;-5.708;2023-07-31T01:46:46;21.10;99.90
60234;DHT22;49514;43.538;-5.708;2023-07-31T01:49:12;21.00;99.90
60234;DHT22;49514;43.538;-5.708;2023-07-31T01:51:39;21.00;99.90
60234;DHT22;49514;43.538;-5.708;2023-07-31T01:54:07;21.00;99.90
60234;DHT22;49514;43.538;-5.708;2023-07-31T01:56:34;21.00;99.90
60234;DHT22;49514;43.538;-5.708;2023-07-31T01:59:01;21.00;99.90
60234;DHT22;49514;43.538;-5.708;2023-07-31T02:01:27;21.00;99.90
60234;DHT22;49514;43.538;-5.708;2023-07-31T02:03:54;20.90;99.90
60234;DHT22;49514;43.538;-5.708;2023-07-31T02:06:22;20.90;99.90
60234;DHT22;49514;43.538;-5.708;2023-07-31T02:08:49;20.90;99.90
60234;DHT22;49514;43.538;-5.708;2023-07-31T02:11:16;20.80;99.90
60234;DHT22;49514;43.538;-5.708;2023-07-31T02:13:43;20.70;99.90
60234;DHT22;49514;43.538;-5.708;2023-07-31T02:16:10;20.80;99.90
60234;DHT22;49514;43.538;-5.708;2023-07-31T02:18:36;20.70;99.90
60234;DHT22;49514;43.538;-5.708;2023-07-31T02:21:03;20.70;99.90
60234;DHT22;49514;43.538;-5.708;2023-07-31T02:23:30;20.70;99.90
60234;DHT22;49514;43.538;-5.708;2023-07-31T02:25:56;20.70;99.90
60234;DHT22;49514;43.538;-5.708;2023-07-31T02:28:23;20.70;99.90
60234;DHT22;49514;43.538;-5.708;2023-07-31T02:30:50;20.70;99.90
60234;DHT22;49514;43.538;-5.708;2023-07-31T02:33:18;20.60;99.90
60234;DHT22;49514;43.538;-5.708;2023-07-31T02:35:46;20.60;99.90
60234;DHT22;49514;43.538;-5.708;2023-07-31T02:38:13;20.60;99.90
60234;DHT22;49514;43.538;-5.708;2023-07-31T02:40:40;20.60;99.90
60234;DHT22;49514;43.538;-5.708;2023-07-31T02:43:10;20.50;99.90
60234;DHT22;49514;43.538;-5.708;2023-07-31T02:45:36;20.50;99.90
60234;DHT22;49514;43.538;-5.708;2023-07-31T02:48:03;20.50;99.90
60234;DHT22;49514;43.538;-5.708;2023-07-31T02:50:30;20.40;99.90
60234;DHT22;49514;43.538;-5.708;2023-07-31T02:52:58;20.40;99.90
60234;DHT22;49514;43.538;-5.708;2023-07-31T02:55:24;20.40;99.90
60234;DHT22;49514;43.538;-5.708;2023-07-31T02:57:51;20.30;99.90
60234;DHT22;49514;43.538;-5.708;2023-07-31T03:00:43;20.30;99.90
60234;DHT22;49514;43.538;-5.708;2023-07-31T03:03:10;20.20;99.90
60234;DHT22;49514;43.538;-5.708;2023-07-31T03:05:37;20.20;99.90
60234;DHT22;49514;43.538;-5.708;2023-07-31T03:08:03;20.20;99.90
60234;DHT22;49514;43.538;-5.708;2023-07-31T03:10:30;20.20;99.90
60234;DHT22;49514;43.538;-5.708;2023-07-31T03:12:57;20.10;99.90
60234;DHT22;49514;43.538;-5.708;2023-07-31T03:15:23;20.10;99.90
60234;DHT22;49514;43.538;-5.708;2023-07-31T03:17:50;20.10;99.90
60234;DHT22;49514;43.538;-5.708;2023-07-31T03:20:17;20.10;99.90
60234;DHT22;49514;43.538;-5.708;2023-07-31T03:22:43;20.00;99.90
60234;DHT22;49514;43.538;-5.708;2023-07-31T03:25:11;20.00;99.90
60234;DHT22;49514;43.538;-5.708;2023-07-31T03:27:38;20.10;99.90
60234;DHT22;49514;43.538;-5.708;2023-07-31T03:30:05;20.10;99.90
60234;DHT22;49514;43.538;-5.708;2023-07-31T03:32:32;20.00;99.90
60234;DHT22;49514;43.538;-5.708;2023-07-31T03:34:59;20.00;99.90
60234;DHT22;49514;43.538;-5.708;2023-07-31T03:37:26;20.00;99.90
60234;DHT22;49514;43.538;-5.708;2023-07-31T03:39:53;20.00;99.90
60234;DHT22;49514;43.538;-5.708;2023-07-31T03:42:20;19.90;99.90
60234;DHT22;49514;43.538;-5.708;2023-07-31T03:44:47;19.90;99.90
60234;DHT22;49514;43.538;-5.708;2023-07-31T03:47:13;19.90;99.90
60234;DHT22;49514;43.538;-5.708;2023-07-31T03:49:40;19.90;99.90
60234;DHT22;49514;43.538;-5.708;2023-07-31T03:52:06;19.90;99.90
60234;DHT22;49514;43.538;-5.708;2023-07-31T03:54:33;19.90;99.90
60234;DHT22;49514;43.538;-5.708;2023-07-31T03:57:00;19.90;99.90
60234;DHT22;49514;43.538;-5.708;2023-07-31T03:59:27;19.80;99.90
60234;DHT22;49514;43.538;-5.708;2023-07-31T04:01:53;19.90;99.90
60234;DHT22;49514;43.538;-5.708;2023-07-31T04:04:20;19.90;99.90
60234;DHT22;49514;43.538;-5.708;2023-07-31T04:06:46;19.80;99.90
60234;DHT22;49514;43.538;-5.708;2023-07-31T04:09:13;19.80;99.90
60234;DHT22;49514;43.538;-5.708;2023-07-31T04:11:39;19.80;99.90
60234;DHT22;49514;43.538;-5.708;2023-07-31T04:14:06;19.80;99.90
60234;DHT22;49514;43.538;-5.708;2023-07-31T04:16:32;19.70;99.90
60234;DHT22;49514;43.538;-5.708;2023-07-31T04:18:59;19.70;99.90
60234;DHT22;49514;43.538;-5.708;2023-07-31T04:21:25;19.70;99.90
60234;DHT22;49514;43.538;-5.708;2023-07-31T04:23:52;19.70;99.90
60234;DHT22;49514;43.538;-5.708;2023-07-31T04:26:22;19.70;99.90
60234;DHT22;49514;43.538;-5.708;2023-07-31T04:28:48;19.60;99.90
60234;DHT22;49514;43.538;-5.708;2023-07-31T04:31:15;19.60;99.90
60234;DHT22;49514;43.538;-5.708;2023-07-31T04:33:42;19.60;99.90
60234;DHT22;49514;43.538;-5.708;2023-07-31T04:36:08;19.60;99.90
60234;DHT22;49514;43.538;-5.708;2023-07-31T04:38:35;19.60;99.90
60234;DHT22;49514;43.538;-5.708;2023-07-31T04:41:01;19.60;99.90
60234;DHT22;49514;43.538;-5.708;2023-07-31T04:43:28;19.60;99.90
60234;DHT22;49514;43.538;-5.708;2023-07-31T04:45:55;19.60;99.90
60234;DHT22;49514;43.538;-5.708;2023-07-31T04:48:21;19.60;99.90
60234;DHT22;49514;43.538;-5.708;2023-07-31T04:50:48;19.60;99.90
60234;DHT22;49514;43.538;-5.708;2023-07-31T04:53:14;19.60;99.90
60234;DHT22;49514;43.538;-5.708;2023-07-31T04:55:41;19.60;99.90
60234;DHT22;49514;43.538;-5.708;2023-07-31T04:58:08;19.50;99.90
60234;DHT22;49514;43.538;-5.708;2023-07-31T05:00:37;19.50;99.90
60234;DHT22;49514;43.538;-5.708;2023-07-31T05:03:04;19.50;99.90
60234;DHT22;49514;43.538;-5.708;2023-07-31T05:05:31;19.50;99.90
60234;DHT22;49514;43.538;-5.708;2023-07-31T05:07:57;19.50;99.90
60234;DHT22;49514;43.538;-5.708;2023-07-31T05:10:24;19.50;99.90
60234;DHT22;49514;43.538;-5.708;2023-07-31T05:12:51;19.50;99.90
60234;DHT22;49514;43.538;-5.708;2023-07-31T05:15:17;19.50;99.90
60234;DHT22;49514;43.538;-5.708;2023-07-31T05:17:44;19.40;99.90
60234;DHT22;49514;43.538;-5.708;2023-07-31T05:20:11;19.40;99.90
60234;DHT22;49514;43.538;-5.708;2023-07-31T05:22:37;19.40;99.90
60234;DHT22;49514;43.538;-5.708;2023-07-31T05:25:04;19.30;99.90
60234;DHT22;49514;43.538;-5.708;2023-07-31T05:27:31;19.30;99.90
60234;DHT22;49514;43.538;-5.708;2023-07-31T05:29:58;19.30;99.90
60234;DHT22;49514;43.538;-5.708;2023-07-31T05:32:25;19.20;99.90
60234;DHT22;49514;43.538;-5.708;2023-07-31T05:34:52;19.20;99.90
60234;DHT22;49514;43.538;-5.708;2023-07-31T05:37:19;19.20;99.90
60234;DHT22;49514;43.538;-5.708;2023-07-31T05:39:46;19.20;99.90
60234;DHT22;49514;43.538;-5.708;2023-07-31T05:42:13;19.20;99.90
60234;DHT22;49514;43.538;-5.708;2023-07-31T05:44:39;19.30;99.90
60234;DHT22;49514;43.538;-5.708;2023-07-31T05:47:06;19.30;99.90
60234;DHT22;49514;43.538;-5.708;2023-07-31T05:49:33;19.30;99.90
60234;DHT22;49514;43.538;-5.708;2023-07-31T05:52:00;19.40;99.90
60234;DHT22;49514;43.538;-5.708;2023-07-31T05:54:26;19.40;99.90
60234;DHT22;49514;43.538;-5.708;2023-07-31T05:56:53;19.40;99.90
60234;DHT22;49514;43.538;-5.708;2023-07-31T05:59:19;19.50;99.90
60234;DHT22;49514;43.538;-5.708;2023-07-31T06:01:46;19.50;99.90
60234;DHT22;49514;43.538;-5.708;2023-07-31T06:04:13;19.50;99.90
60234;DHT22;49514;43.538;-5.708;2023-07-31T06:06:39;19.60;99.90
60234;DHT22;49514;43.538;-5.708;2023-07-31T06:09:06;19.60;99.90
60234;DHT22;49514;43.538;-5.708;2023-07-31T06:11:33;19.60;99.90
60234;DHT22;49514;43.538;-5.708;2023-07-31T06:13:59;19.60;99.90
60234;DHT22;49514;43.538;-5.708;2023-07-31T06:16:26;19.60;99.90
60234;DHT22;49514;43.538;-5.708;2023-07-31T06:18:53;19.60;99.90
60234;DHT22;49514;43.538;-5.708;2023-07-31T06:21:20;19.60;99.90
60234;DHT22;49514;43.538;-5.708;2023-07-31T06:23:46;19.70;99.90
60234;DHT22;49514;43.538;-5.708;2023-07-31T06:26:13;19.60;99.90
60234;DHT22;49514;43.538;-5.708;2023-07-31T06:28:40;19.60;99.90
60234;DHT22;49514;43.538;-5.708;2023-07-31T06:31:06;19.60;99.90
60234;DHT22;49514;43.538;-5.708;2023-07-31T06:33:33;19.50;99.90
60234;DHT22;49514;43.538;-5.708;2023-07-31T06:35:59;19.40;99.90
60234;DHT22;49514;43.538;-5.708;2023-07-31T06:38:26;19.30;99.90
60234;DHT22;49514;43.538;-5.708;2023-07-31T06:40:53;19.30;99.90
60234;DHT22;49514;43.538;-5.708;2023-07-31T06:43:20;19.30;99.90
60234;DHT22;49514;43.538;-5.708;2023-07-31T06:45:47;19.30;99.90
60234;DHT22;49514;43.538;-5.708;2023-07-31T06:48:17;19.40;99.90
60234;DHT22;49514;43.538;-5.708;2023-07-31T06:50:43;19.40;99.90
60234;DHT22;49514;43.538;-5.708;2023-07-31T06:53:10;19.50;99.90
60234;DHT22;49514;43.538;-5.708;2023-07-31T06:55:37;19.50;99.90
60234;DHT22;49514;43.538;-5.708;2023-07-31T06:58:03;19.60;99.90
60234;DHT22;49514;43.538;-5.708;2023-07-31T07:00:30;19.60;99.90
60234;DHT22;49514;43.538;-5.708;2023-07-31T07:02:57;19.70;99.90
60234;DHT22;49514;43.538;-5.708;2023-07-31T07:05:23;19.70;99.90
60234;DHT22;49514;43.538;-5.708;2023-07-31T07:07:50;19.80;99.90
60234;DHT22;49514;43.538;-5.708;2023-07-31T07:10:19;19.80;99.90
60234;DHT22;49514;43.538;-5.708;2023-07-31T07:12:46;19.80;99.90
60234;DHT22;49514;43.538;-5.708;2023-07-31T07:15:13;19.90;99.90
60234;DHT22;49514;43.538;-5.708;2023-07-31T07:17:39;19.90;99.90
60234;DHT22;49514;43.538;-5.708;2023-07-31T07:20:07;19.90;99.90
60234;DHT22;49514;43.538;-5.708;2023-07-31T07:22:34;20.00;99.90
60234;DHT22;49514;43.538;-5.708;2023-07-31T07:25:00;20.10;99.90
60234;DHT22;49514;43.538;-5.708;2023-07-31T07:27:27;20.10;99.90
60234;DHT22;49514;43.538;-5.708;2023-07-31T07:29:54;20.10;99.90
60234;DHT22;49514;43.538;-5.708;2023-07-31T07:32:20;20.20;99.90
60234;DHT22;49514;43.538;-5.708;2023-07-31T07:34:48;20.20;99.90
60234;DHT22;49514;43.538;-5.708;2023-07-31T07:37:15;20.20;99.90
60234;DHT22;49514;43.538;-5.708;2023-07-31T07:39:42;20.30;99.90
60234;DHT22;49514;43.538;-5.708;2023-07-31T07:42:08;20.40;99.90
60234;DHT22;49514;43.538;-5.708;2023-07-31T07:44:35;20.50;99.90
60234;DHT22;49514;43.538;-5.708;2023-07-31T07:47:01;20.50;99.90
60234;DHT22;49514;43.538;-5.708;2023-07-31T07:49:29;20.70;99.90
60234;DHT22;49514;43.538;-5.708;2023-07-31T07:51:55;20.70;99.90
60234;DHT22;49514;43.538;-5.708;2023-07-31T07:54:22;20.80;99.90
60234;DHT22;49514;43.538;-5.708;2023-07-31T07:56:49;20.90;99.90
60234;DHT22;49514;43.538;-5.708;2023-07-31T07:59:16;21.00;99.90
60234;DHT22;49514;43.538;-5.708;2023-07-31T08:01:43;21.10;99.90
60234;DHT22;49514;43.538;-5.708;2023-07-31T08:04:09;21.20;99.90
60234;DHT22;49514;43.538;-5.708;2023-07-31T08:06:36;21.30;99.90
60234;DHT22;49514;43.538;-5.708;2023-07-31T08:09:02;21.40;99.90
60234;DHT22;49514;43.538;-5.708;2023-07-31T08:11:33;21.50;99.90
60234;DHT22;49514;43.538;-5.708;2023-07-31T08:13:59;21.70;99.90
60234;DHT22;49514;43.538;-5.708;2023-07-31T08:16:26;21.80;99.90
60234;DHT22;49514;43.538;-5.708;2023-07-31T08:18:53;21.90;99.90
60234;DHT22;49514;43.538;-5.708;2023-07-31T08:21:20;22.00;99.90
60234;DHT22;49514;43.538;-5.708;2023-07-31T08:23:47;22.10;99.90
60234;DHT22;49514;43.538;-5.708;2023-07-31T08:26:15;22.10;99.90
60234;DHT22;49514;43.538;-5.708;2023-07-31T08:28:42;22.20;99.90
60234;DHT22;49514;43.538;-5.708;2023-07-31T08:31:09;22.30;99.90
60234;DHT22;49514;43.538;-5.708;2023-07-31T08:33:38;22.40;99.90
60234;DHT22;49514;43.538;-5.708;2023-07-31T08:36:05;22.40;99.90
60234;DHT22;49514;43.538;-5.708;2023-07-31T08:38:32;22.50;99.90
60234;DHT22;49514;43.538;-5.708;2023-07-31T08:40:59;22.70;99.90
60234;DHT22;49514;43.538;-5.708;2023-07-31T08:43:26;22.70;99.90
60234;DHT22;49514;43.538;-5.708;2023-07-31T08:45:54;22.70;99.90
60234;DHT22;49514;43.538;-5.708;2023-07-31T08:48:24;22.70;99.90
60234;DHT22;49514;43.538;-5.708;2023-07-31T08:50:54;22.70;99.90
60234;DHT22;49514;43.538;-5.708;2023-07-31T08:53:21;22.80;99.90
60234;DHT22;49514;43.538;-5.708;2023-07-31T08:55:49;22.80;99.90
60234;DHT22;49514;43.538;-5.708;2023-07-31T08:58:17;22.90;99.90
60234;DHT22;49514;43.538;-5.708;2023-07-31T09:00:46;22.90;99.90
60234;DHT22;49514;43.538;-5.708;2023-07-31T09:03:15;23.00;99.90
60234;DHT22;49514;43.538;-5.708;2023-07-31T09:05:44;23.00;99.90
60234;DHT22;49514;43.538;-5.708;2023-07-31T09:08:12;23.10;99.90
60234;DHT22;49514;43.538;-5.708;2023-07-31T09:10:43;23.20;99.90
60234;DHT22;49514;43.538;-5.708;2023-07-31T09:13:13;23.20;99.90
60234;DHT22;49514;43.538;-5.708;2023-07-31T09:15:40;23.20;99.90
60234;DHT22;49514;43.538;-5.708;2023-07-31T09:18:09;23.30;99.90
60234;DHT22;49514;43.538;-5.708;2023-07-31T09:20:36;23.40;99.90
60234;DHT22;49514;43.538;-5.708;2023-07-31T09:23:12;23.40;99.90
60234;DHT22;49514;43.538;-5.708;2023-07-31T09:25:41;23.50;99.90
60234;DHT22;49514;43.538;-5.708;2023-07-31T09:28:10;23.50;99.90
60234;DHT22;49514;43.538;-5.708;2023-07-31T09:30:48;23.50;99.90
60234;DHT22;49514;43.538;-5.708;2023-07-31T09:33:15;23.50;99.90
60234;DHT22;49514;43.538;-5.708;2023-07-31T09:35:42;23.40;99.90
60234;DHT22;49514;43.538;-5.708;2023-07-31T09:38:10;23.40;99.90
60234;DHT22;49514;43.538;-5.708;2023-07-31T09:40:42;23.40;99.90
60234;DHT22;49514;43.538;-5.708;2023-07-31T09:43:12;23.30;99.90
60234;DHT22;49514;43.538;-5.708;2023-07-31T09:45:40;23.40;99.90
60234;DHT22;49514;43.538;-5.708;2023-07-31T09:48:12;23.40;99.90
60234;DHT22;49514;43.538;-5.708;2023-07-31T09:50:44;23.50;99.90
60234;DHT22;49514;43.538;-5.708;2023-07-31T09:53:11;23.50;99.90
60234;DHT22;49514;43.538;-5.708;2023-07-31T09:55:39;23.60;99.90
60234;DHT22;49514;43.538;-5.708;2023-07-31T09:58:08;23.60;99.90
60234;DHT22;49514;43.538;-5.708;2023-07-31T10:00:36;23.50;99.90
60234;DHT22;49514;43.538;-5.708;2023-07-31T10:03:08;23.60;99.90
60234;DHT22;49514;43.538;-5.708;2023-07-31T10:05:42;23.70;99.90
60234;DHT22;49514;43.538;-5.708;2023-07-31T10:08:12;23.70;99.90
60234;DHT22;49514;43.538;-5.708;2023-07-31T10:10:44;23.70;99.90
60234;DHT22;49514;43.538;-5.708;2023-07-31T10:13:15;23.80;99.90
60234;DHT22;49514;43.538;-5.708;2023-07-31T10:15:43;23.80;99.90
60234;DHT22;49514;43.538;-5.708;2023-07-31T10:18:10;23.80;99.90
60234;DHT22;49514;43.538;-5.708;2023-07-31T10:20:37;23.80;99.90
60234;DHT22;49514;43.538;-5.708;2023-07-31T10:23:04;23.70;99.90
60234;DHT22;49514;43.538;-5.708;2023-07-31T10:25:33;23.80;99.90
60234;DHT22;49514;43.538;-5.708;2023-07-31T10:28:00;23.80;99.90
60234;DHT22;49514;43.538;-5.708;2023-07-31T10:30:29;23.90;99.90
60234;DHT22;49514;43.538;-5.708;2023-07-31T10:32:57;23.90;99.90
60234;DHT22;49514;43.538;-5.708;2023-07-31T10:35:24;23.90;99.90
60234;DHT22;49514;43.538;-5.708;2023-07-31T10:37:52;23.90;99.90
60234;DHT22;49514;43.538;-5.708;2023-07-31T10:40:24;23.90;99.90
60234;DHT22;49514;43.538;-5.708;2023-07-31T10:42:55;23.80;99.90
60234;DHT22;49514;43.538;-5.708;2023-07-31T10:45:39;23.80;99.90
60234;DHT22;49514;43.538;-5.708;2023-07-31T10:48:15;23.70;99.90
60234;DHT22;49514;43.538;-5.708;2023-07-31T10:50:48;23.80;99.90
60234;DHT22;49514;43.538;-5.708;2023-07-31T10:53:23;23.80;99.90
60234;DHT22;49514;43.538;-5.708;2023-07-31T10:55:51;23.80;99.90
60234;DHT22;49514;43.538;-5.708;2023-07-31T10:58:20;23.80;99.90
60234;DHT22;49514;43.538;-5.708;2023-07-31T11:00:49;23.70;99.90
60234;DHT22;49514;43.538;-5.708;2023-07-31T11:03:19;23.70;99.90
60234;DHT22;49514;43.538;-5.708;2023-07-31T11:08:27;23.70;99.90
60234;DHT22;49514;43.538;-5.708;2023-07-31T11:13:43;23.80;99.90
60234;DHT22;49514;43.538;-5.708;2023-07-31T11:16:11;23.80;99.90
60234;DHT22;49514;43.538;-5.708;2023-07-31T11:18:43;23.90;99.90
60234;DHT22;49514;43.538;-5.708;2023-07-31T11:21:14;23.90;99.90
60234;DHT22;49514;43.538;-5.708;2023-07-31T11:23:41;23.90;99.90
60234;DHT22;49514;43.538;-5.708;2023-07-31T11:26:11;23.90;99.90
60234;DHT22;49514;43.538;-5.708;2023-07-31T11:28:38;23.90;99.90
60234;DHT22;49514;43.538;-5.708;2023-07-31T11:31:09;23.90;99.90
60234;DHT22;49514;43.538;-5.708;2023-07-31T11:33:35;23.90;99.90
60234;DHT22;49514;43.538;-5.708;2023-07-31T11:36:02;23.90;99.90
60234;DHT22;49514;43.538;-5.708;2023-07-31T11:38:33;23.90;99.90
60234;DHT22;49514;43.538;-5.708;2023-07-31T11:41:02;24.00;99.90
60234;DHT22;49514;43.538;-5.708;2023-07-31T11:43:30;24.00;99.90
60234;DHT22;49514;43.538;-5.708;2023-07-31T11:46:01;24.00;99.90
60234;DHT22;49514;43.538;-5.708;2023-07-31T11:48:34;24.00;99.90
60234;DHT22;49514;43.538;-5.708;2023-07-31T11:51:04;24.10;99.90
60234;DHT22;49514;43.538;-5.708;2023-07-31T11:53:49;24.10;99.90
60234;DHT22;49514;43.538;-5.708;2023-07-31T11:56:18;24.20;99.90
60234;DHT22;49514;43.538;-5.708;2023-07-31T11:59:12;24.20;99.90
60234;DHT22;49514;43.538;-5.708;2023-07-31T12:01:39;24.30;99.90
60234;DHT22;49514;43.538;-5.708;2023-07-31T12:04:06;24.40;99.90
60234;DHT22;49514;43.538;-5.708;2023-07-31T12:06:34;24.40;99.90
60234;DHT22;49514;43.538;-5.708;2023-07-31T12:09:03;24.50;99.90
60234;DHT22;49514;43.538;-5.708;2023-07-31T12:11:30;24.60;99.90
60234;DHT22;49514;43.538;-5.708;2023-07-31T12:13:57;24.70;99.90
60234;DHT22;49514;43.538;-5.708;2023-07-31T12:16:26;24.70;99.90
60234;DHT22;49514;43.538;-5.708;2023-07-31T12:18:54;24.80;99.90
60234;DHT22;49514;43.538;-5.708;2023-07-31T12:21:21;24.90;99.90
60234;DHT22;49514;43.538;-5.708;2023-07-31T12:23:48;25.10;99.90
60234;DHT22;49514;43.538;-5.708;2023-07-31T12:26:15;25.20;99.90
60234;DHT22;49514;43.538;-5.708;2023-07-31T12:28:47;25.30;99.90
60234;DHT22;49514;43.538;-5.708;2023-07-31T12:31:21;25.50;99.90
60234;DHT22;49514;43.538;-5.708;2023-07-31T12:33:50;25.60;99.90
60234;DHT22;49514;43.538;-5.708;2023-07-31T12:36:20;25.80;99.90
60234;DHT22;49514;43.538;-5.708;2023-07-31T12:38:47;26.00;99.90
60234;DHT22;49514;43.538;-5.708;2023-07-31T12:41:14;26.10;99.90
60234;DHT22;49514;43.538;-5.708;2023-07-31T12:43:41;26.30;99.90
60234;DHT22;49514;43.538;-5.708;2023-07-31T12:46:09;26.50;99.90
60234;DHT22;49514;43.538;-5.708;2023-07-31T12:48:37;26.60;99.90
60234;DHT22;49514;43.538;-5.708;2023-07-31T12:51:04;26.80;99.90
60234;DHT22;49514;43.538;-5.708;2023-07-31T12:53:30;27.00;99.90
60234;DHT22;49514;43.538;-5.708;2023-07-31T12:55:57;27.20;99.90
60234;DHT22;49514;43.538;-5.708;2023-07-31T12:58:24;27.30;99.90
60234;DHT22;49514;43.538;-5.708;2023-07-31T13:00:52;27.40;99.90
60234;DHT22;49514;43.538;-5.708;2023-07-31T13:03:18;27.50;99.90
60234;DHT22;49514;43.538;-5.708;2023-07-31T13:05:45;27.50;99.90
60234;DHT22;49514;43.538;-5.708;2023-07-31T13:08:11;27.60;99.90
60234;DHT22;49514;43.538;-5.708;2023-07-31T13:10:38;27.70;99.90
60234;DHT22;49514;43.538;-5.708;2023-07-31T13:13:06;27.80;99.90
60234;DHT22;49514;43.538;-5.708;2023-07-31T13:15:33;27.80;99.90
60234;DHT22;49514;43.538;-5.708;2023-07-31T13:17:59;27.90;99.90
60234;DHT22;49514;43.538;-5.708;2023-07-31T13:20:26;28.00;99.90
60234;DHT22;49514;43.538;-5.708;2023-07-31T13:22:53;28.20;99.90
60234;DHT22;49514;43.538;-5.708;2023-07-31T13:25:20;28.10;99.90
60234;DHT22;49514;43.538;-5.708;2023-07-31T13:27:47;28.10;99.90
60234;DHT22;49514;43.538;-5.708;2023-07-31T13:30:13;28.10;99.90
60234;DHT22;49514;43.538;-5.708;2023-07-31T13:32:39;28.10;99.90
60234;DHT22;49514;43.538;-5.708;2023-07-31T13:35:06;28.20;99.90
60234;DHT22;49514;43.538;-5.708;2023-07-31T13:37:33;28.20;99.90
60234;DHT22;49514;43.538;-5.708;2023-07-31T13:40:00;28.30;99.90
60234;DHT22;49514;43.538;-5.708;2023-07-31T13:42:26;28.20;99.90
60234;DHT22;49514;43.538;-5.708;2023-07-31T13:44:54;28.30;99.90
60234;DHT22;49514;43.538;-5.708;2023-07-31T13:47:22;28.40;99.90
60234;DHT22;49514;43.538;-5.708;2023-07-31T13:49:48;28.50;99.90
60234;DHT22;49514;43.538;-5.708;2023-07-31T13:52:15;28.70;98.80
60234;DHT22;49514;43.538;-5.708;2023-07-31T13:54:41;28.80;98.50
60234;DHT22;49514;43.538;-5.708;2023-07-31T13:57:09;29.00;98.10
60234;DHT22;49514;43.538;-5.708;2023-07-31T13:59:36;29.20;97.20
60234;DHT22;49514;43.538;-5.708;2023-07-31T14:02:03;29.20;97.30
60234;DHT22;49514;43.538;-5.708;2023-07-31T14:04:29;29.20;97.00
60234;DHT22;49514;43.538;-5.708;2023-07-31T14:06:56;29.30;97.40
60234;DHT22;49514;43.538;-5.708;2023-07-31T14:09:22;29.40;96.00
60234;DHT22;49514;43.538;-5.708;2023-07-31T14:11:49;29.40;95.60
60234;DHT22;49514;43.538;-5.708;2023-07-31T14:14:15;29.50;96.20
60234;DHT22;49514;43.538;-5.708;2023-07-31T14:16:44;29.50;96.20
60234;DHT22;49514;43.538;-5.708;2023-07-31T14:19:11;29.50;95.80
60234;DHT22;49514;43.538;-5.708;2023-07-31T14:21:37;29.70;95.80
60234;DHT22;49514;43.538;-5.708;2023-07-31T14:24:03;29.80;95.50
60234;DHT22;49514;43.538;-5.708;2023-07-31T14:26:30;29.70;94.80
60234;DHT22;49514;43.538;-5.708;2023-07-31T14:28:56;29.70;95.30
60234;DHT22;49514;43.538;-5.708;2023-07-31T14:31:23;29.60;95.60
60234;DHT22;49514;43.538;-5.708;2023-07-31T14:33:49;29.60;95.00
60234;DHT22;49514;43.538;-5.708;2023-07-31T14:36:15;29.50;95.10
60234;DHT22;49514;43.538;-5.708;2023-07-31T14:38:41;29.50;95.70
60234;DHT22;49514;43.538;-5.708;2023-07-31T14:41:08;29.50;95.80
60234;DHT22;49514;43.538;-5.708;2023-07-31T14:43:34;29.60;95.90
60234;DHT22;49514;43.538;-5.708;2023-07-31T14:46:01;29.70;96.00
60234;DHT22;49514;43.538;-5.708;2023-07-31T14:48:27;29.80;95.90
60234;DHT22;49514;43.538;-5.708;2023-07-31T14:50:55;30.00;95.50
60234;DHT22;49514;43.538;-5.708;2023-07-31T14:53:21;30.00;95.40
60234;DHT22;49514;43.538;-5.708;2023-07-31T14:55:48;29.90;95.50
60234;DHT22;49514;43.538;-5.708;2023-07-31T14:58:14;30.10;95.20
60234;DHT22;49514;43.538;-5.708;2023-07-31T15:00:43;30.10;94.70
60234;DHT22;49514;43.538;-5.708;2023-07-31T15:03:09;30.10;94.90
60234;DHT22;49514;43.538;-5.708;2023-07-31T15:05:36;30.10;94.30
60234;DHT22;49514;43.538;-5.708;2023-07-31T15:08:02;30.10;94.50
60234;DHT22;49514;43.538;-5.708;2023-07-31T15:10:28;30.10;94.60
60234;DHT22;49514;43.538;-5.708;2023-07-31T15:12:55;30.00;94.50
60234;DHT22;49514;43.538;-5.708;2023-07-31T15:15:21;30.10;94.50
60234;DHT22;49514;43.538;-5.708;2023-07-31T15:17:48;30.10;95.10
60234;DHT22;49514;43.538;-5.708;2023-07-31T15:20:14;30.20;95.30
60234;DHT22;49514;43.538;-5.708;2023-07-31T15:22:41;30.20;95.00
60234;DHT22;49514;43.538;-5.708;2023-07-31T15:25:08;30.20;94.90
60234;DHT22;49514;43.538;-5.708;2023-07-31T15:27:34;30.10;95.20
60234;DHT22;49514;43.538;-5.708;2023-07-31T15:30:01;30.10;94.90
60234;DHT22;49514;43.538;-5.708;2023-07-31T15:32:29;30.10;95.00